createdAt,value
2023-04-15T00:01:01.561Z,6.67
2023-04-15T00:03:30.241Z,6.67
2023-04-15T00:06:00.132Z,6.69
2023-04-15T00:08:30.191Z,6.72
2023-04-15T00:11:03.142Z,6.76
2023-04-15T00:13:34.179Z,6.77
2023-04-15T00:16:02.815Z,6.77
2023-04-15T00:18:31.948Z,6.77
2023-04-15T00:21:00.430Z,6.76
2023-04-15T00:23:29.090Z,6.76
2023-04-15T00:25:57.475Z,6.78
2023-04-15T00:28:25.741Z,6.81
2023-04-15T00:30:54.133Z,6.83
2023-04-15T00:33:22.432Z,6.84
2023-04-15T00:35:51.067Z,6.84
2023-04-15T00:38:19.797Z,6.82
2023-04-15T00:40:48.489Z,6.81
2023-04-15T00:43:17.845Z,6.76
2023-04-15T00:45:47.410Z,6.78
2023-04-15T00:48:16.569Z,6.76
2023-04-15T00:50:44.937Z,6.72
2023-04-15T00:53:13.418Z,6.67
2023-04-15T00:55:42.820Z,6.59
2023-04-15T00:58:11.332Z,6.55
2023-04-15T01:00:41.030Z,6.57
2023-04-15T01:03:10.321Z,6.57
2023-04-15T01:05:39.547Z,6.62
2023-04-15T01:08:07.910Z,6.65
2023-04-15T01:10:36.142Z,6.71
2023-04-15T01:13:04.474Z,6.71
2023-04-15T01:15:32.933Z,6.68
2023-04-15T01:18:03.360Z,6.62
2023-04-15T01:20:32.263Z,6.58
2023-04-15T01:23:01.536Z,6.53
2023-04-15T01:25:33.460Z,6.48
2023-04-15T01:28:02.407Z,6.38
2023-04-15T01:30:34.948Z,6.31
2023-04-15T01:33:03.340Z,6.30
2023-04-15T01:35:32.389Z,6.23
2023-04-15T01:38:07.599Z,6.20
2023-04-15T01:40:36.000Z,6.10
2023-04-15T01:43:04.257Z,6.07
2023-04-15T01:45:32.442Z,6.02
2023-04-15T01:48:01.072Z,5.95
2023-04-15T01:50:29.511Z,5.81
2023-04-15T01:52:57.834Z,5.69
2023-04-15T01:55:26.380Z,5.66
2023-04-15T01:57:55.001Z,5.61
2023-04-15T02:00:24.190Z,5.56
2023-04-15T02:02:54.265Z,5.46
2023-04-15T02:05:22.889Z,5.46
2023-04-15T02:07:51.566Z,5.44
2023-04-15T02:10:19.916Z,5.41
2023-04-15T02:12:48.031Z,5.39
2023-04-15T02:15:16.699Z,5.38
2023-04-15T02:17:46.231Z,5.35
2023-04-15T02:20:19.400Z,5.30
2023-04-15T02:22:48.599Z,5.22
2023-04-15T02:25:17.406Z,5.21
2023-04-15T02:27:45.872Z,5.20
2023-04-15T02:30:14.290Z,5.16
2023-04-15T02:32:45.456Z,5.12
2023-04-15T02:35:14.378Z,5.07
2023-04-15T02:37:44.023Z,5.02
2023-04-15T02:40:13.408Z,5.00
2023-04-15T02:42:43.383Z,5.00
2023-04-15T02:45:13.901Z,5.01
2023-04-15T02:47:43.457Z,5.00
2023-04-15T02:50:13.394Z,4.99
2023-04-15T02:52:44.954Z,4.96
2023-04-15T02:55:13.536Z,4.96
2023-04-15T02:57:41.992Z,4.96
2023-04-15T03:00:12.374Z,4.97
2023-04-15T03:02:43.576Z,4.99
2023-04-15T03:05:13.915Z,4.93
2023-04-15T03:07:46.488Z,4.86
2023-04-15T03:10:15.826Z,4.82
2023-04-15T03:12:44.009Z,4.62
2023-04-15T03:15:15.814Z,4.59
2023-04-15T03:17:46.682Z,4.53
2023-04-15T03:20:15.835Z,4.47
2023-04-15T03:22:44.337Z,4.49
2023-04-15T03:25:12.630Z,4.53
2023-04-15T03:27:42.064Z,4.51
2023-04-15T03:30:11.227Z,4.50
2023-04-15T03:32:40.427Z,4.47
2023-04-15T03:35:09.849Z,4.44
2023-04-15T03:37:38.209Z,4.38
2023-04-15T03:40:07.495Z,4.31
2023-04-15T03:42:35.788Z,4.26
2023-04-15T03:45:04.789Z,4.28
2023-04-15T03:47:33.097Z,4.38
2023-04-15T03:50:01.359Z,4.44
2023-04-15T03:52:29.532Z,4.50
2023-04-15T03:54:58.000Z,4.55
2023-04-15T03:57:26.723Z,4.59
2023-04-15T03:59:54.983Z,4.63
2023-04-15T04:02:23.712Z,4.66
2023-04-15T04:04:52.265Z,4.70
2023-04-15T04:07:20.521Z,4.76
2023-04-15T04:09:48.929Z,4.83
2023-04-15T04:12:17.171Z,4.90
2023-04-15T04:14:45.963Z,4.96
2023-04-15T04:17:14.173Z,5.04
2023-04-15T04:19:42.423Z,5.10
2023-04-15T04:22:10.827Z,5.18
2023-04-15T04:24:39.177Z,5.23
2023-04-15T04:27:07.770Z,5.28
2023-04-15T04:29:36.360Z,5.32
2023-04-15T04:32:05.071Z,5.36
2023-04-15T04:34:33.350Z,5.42
2023-04-15T04:37:01.587Z,5.50
2023-04-15T04:39:29.772Z,5.58
2023-04-15T04:41:57.866Z,5.66
2023-04-15T04:44:26.523Z,5.74
2023-04-15T04:46:54.834Z,5.83
2023-04-15T04:49:23.392Z,5.92
2023-04-15T04:51:52.497Z,6.00
2023-04-15T04:54:21.489Z,6.07
2023-04-15T04:56:49.653Z,6.13
2023-04-15T04:59:19.396Z,6.19
2023-04-15T05:01:48.308Z,6.28
2023-04-15T05:04:17.045Z,6.36
2023-04-15T05:06:45.547Z,6.42
2023-04-15T05:09:13.711Z,6.48
2023-04-15T05:11:42.123Z,6.53
2023-04-15T05:14:10.475Z,6.58
2023-04-15T05:16:38.802Z,6.56
2023-04-15T05:19:07.888Z,6.58
2023-04-15T05:21:38.253Z,6.70
2023-04-15T05:24:07.791Z,7.55
2023-04-15T05:26:36.087Z,9.04
2023-04-15T05:29:04.613Z,10.52
2023-04-15T05:31:33.218Z,11.80
2023-04-15T05:34:01.816Z,12.64
2023-04-15T05:36:30.029Z,13.03
2023-04-15T05:38:58.295Z,13.88
2023-04-15T05:41:26.658Z,14.34
2023-04-15T05:43:55.055Z,14.38
2023-04-15T05:46:23.392Z,14.95
2023-04-15T05:48:51.847Z,15.20
2023-04-15T05:51:20.383Z,15.14
2023-04-15T05:53:48.763Z,14.89
2023-04-15T05:56:17.358Z,14.77
2023-04-15T05:58:45.529Z,14.48
2023-04-15T06:01:13.753Z,14.39
2023-04-15T06:03:43.131Z,14.97
2023-04-15T06:06:11.488Z,15.79
2023-04-15T06:08:39.772Z,16.57
2023-04-15T06:11:08.040Z,16.67
2023-04-15T06:13:36.376Z,16.04
2023-04-15T06:16:05.467Z,15.81
2023-04-15T06:18:33.702Z,15.99
2023-04-15T06:21:02.081Z,15.55
2023-04-15T06:23:30.561Z,14.86
2023-04-15T06:25:58.868Z,14.22
2023-04-15T06:28:27.012Z,13.84
2023-04-15T06:30:55.148Z,13.37
2023-04-15T06:33:23.568Z,12.91
2023-04-15T06:35:51.741Z,12.40
2023-04-15T06:38:20.073Z,12.27
2023-04-15T06:40:48.398Z,12.01
2023-04-15T06:43:16.619Z,11.82
2023-04-15T06:45:44.889Z,11.47
2023-04-15T06:48:13.449Z,11.40
2023-04-15T06:50:41.928Z,11.09
2023-04-15T06:53:10.200Z,10.95
2023-04-15T06:55:38.463Z,10.87
2023-04-15T06:58:06.571Z,10.70
2023-04-15T07:00:34.725Z,10.41
2023-04-15T07:03:03.968Z,10.35
2023-04-15T07:05:32.611Z,10.21
2023-04-15T07:08:01.353Z,10.16
2023-04-15T07:10:30.198Z,10.18
2023-04-15T07:12:58.577Z,10.10
2023-04-15T07:15:26.769Z,10.08
2023-04-15T07:17:55.398Z,10.04
2023-04-15T07:20:23.750Z,10.01
2023-04-15T07:22:52.006Z,9.86
2023-04-15T07:25:20.785Z,9.83
2023-04-15T07:27:49.077Z,9.87
2023-04-15T07:30:17.442Z,9.97
2023-04-15T07:32:45.895Z,10.03
2023-04-15T07:35:14.919Z,10.19
2023-04-15T07:37:43.710Z,10.51
2023-04-15T07:40:12.129Z,10.70
2023-04-15T07:42:41.451Z,11.16
2023-04-15T07:45:10.549Z,11.65
2023-04-15T07:47:38.842Z,12.00
2023-04-15T07:50:07.534Z,12.28
2023-04-15T07:52:39.335Z,12.66
2023-04-15T07:55:11.545Z,12.55
2023-04-15T07:57:40.171Z,12.58
2023-04-15T08:00:09.302Z,12.71
2023-04-15T08:02:43.735Z,12.60
2023-04-15T08:05:12.210Z,12.56
2023-04-15T08:07:41.095Z,12.52
2023-04-15T08:10:10.171Z,12.46
2023-04-15T08:12:38.655Z,12.45
2023-04-15T08:15:08.473Z,12.62
2023-04-15T08:17:36.848Z,12.70
2023-04-15T08:20:06.175Z,12.68
2023-04-15T08:22:34.635Z,12.56
2023-04-15T08:25:03.844Z,12.44
2023-04-15T08:27:32.240Z,12.36
2023-04-15T08:30:02.153Z,12.26
2023-04-15T08:32:32.268Z,12.27
2023-04-15T08:35:00.834Z,12.35
2023-04-15T08:37:29.294Z,12.43
2023-04-15T08:39:57.529Z,12.87
2023-04-15T08:42:32.864Z,13.43
2023-04-15T08:45:02.192Z,13.90
2023-04-15T08:47:34.639Z,13.94
2023-04-15T08:50:04.640Z,14.11
2023-04-15T08:52:33.353Z,14.47
2023-04-15T08:55:03.804Z,14.81
2023-04-15T08:57:33.624Z,14.85
2023-04-15T09:00:05.706Z,14.81
2023-04-15T09:02:34.666Z,14.32
2023-04-15T09:05:05.173Z,14.25
2023-04-15T09:07:36.920Z,14.69
2023-04-15T09:10:05.718Z,14.89
2023-04-15T09:12:37.703Z,15.30
2023-04-15T09:15:06.965Z,15.94
2023-04-15T09:17:35.269Z,16.19
2023-04-15T09:20:15.297Z,16.77
2023-04-15T09:22:45.644Z,16.85
2023-04-15T09:25:22.925Z,16.84
2023-04-15T09:27:58.409Z,17.27
2023-04-15T09:30:28.601Z,17.63
2023-04-15T09:33:02.548Z,18.03
2023-04-15T09:35:31.239Z,18.13
2023-04-15T09:38:08.289Z,17.80
2023-04-15T09:40:36.569Z,17.91
2023-04-15T09:43:06.292Z,17.70
2023-04-15T09:45:36.009Z,17.23
2023-04-15T09:48:31.505Z,16.80
2023-04-15T09:51:01.669Z,16.63
2023-04-15T09:53:33.096Z,16.50
2023-04-15T09:56:02.686Z,16.48
2023-04-15T09:58:33.833Z,16.58
2023-04-15T10:01:05.261Z,16.33
2023-04-15T10:03:39.187Z,16.06
2023-04-15T10:06:08.324Z,15.99
2023-04-15T10:08:36.560Z,15.88
2023-04-15T10:11:06.175Z,15.16
2023-04-15T10:13:36.536Z,14.88
2023-04-15T10:16:10.985Z,14.73
2023-04-15T10:18:43.939Z,14.25
2023-04-15T10:21:18.994Z,14.25
2023-04-15T10:23:47.817Z,13.97
2023-04-15T10:26:17.682Z,13.92
2023-04-15T10:28:50.097Z,14.19
2023-04-15T10:31:20.240Z,14.44
2023-04-15T10:33:49.551Z,14.73
2023-04-15T10:36:20.346Z,14.76
2023-04-15T10:38:48.776Z,14.65
2023-04-15T10:41:21.060Z,14.50
2023-04-15T10:44:01.649Z,14.42
2023-04-15T10:46:46.013Z,14.46
2023-04-15T10:49:17.184Z,14.91
2023-04-15T10:51:51.371Z,15.03
2023-04-15T10:54:25.898Z,15.29
2023-04-15T10:57:06.729Z,15.61
2023-04-15T11:00:06.952Z,15.43
2023-04-15T11:02:47.691Z,15.59
2023-04-15T11:05:17.831Z,15.55
2023-04-15T11:07:58.955Z,15.72
2023-04-15T11:10:31.112Z,15.64
2023-04-15T11:13:00.668Z,15.59
2023-04-15T11:15:32.613Z,15.63
2023-04-15T11:18:14.077Z,15.39
2023-04-15T11:20:47.433Z,15.16
2023-04-15T11:23:17.085Z,15.33
2023-04-15T11:25:46.304Z,15.35
2023-04-15T11:28:14.538Z,15.64
2023-04-15T11:30:43.693Z,15.82
2023-04-15T11:33:13.931Z,15.87
2023-04-15T11:35:42.764Z,16.04
2023-04-15T11:38:13.210Z,16.07
2023-04-15T11:40:44.567Z,16.30
2023-04-15T11:43:23.060Z,16.37
2023-04-15T11:45:53.467Z,16.24
2023-04-15T11:48:28.074Z,15.84
2023-04-15T11:50:59.402Z,15.79
2023-04-15T11:53:48.303Z,16.04
2023-04-15T11:56:22.060Z,15.97
2023-04-15T11:58:59.449Z,15.78
2023-04-15T12:01:48.141Z,15.75
2023-04-15T12:04:23.490Z,15.72
2023-04-15T12:06:53.633Z,15.76
2023-04-15T12:09:21.962Z,15.78
2023-04-15T12:11:58.577Z,15.74
2023-04-15T12:14:29.238Z,15.63
2023-04-15T12:17:02.354Z,15.56
2023-04-15T12:19:38.987Z,15.62
2023-04-15T12:22:14.133Z,15.68
2023-04-15T12:24:48.670Z,15.79
2023-04-15T12:27:17.877Z,15.65
2023-04-15T12:29:46.160Z,15.56
2023-04-15T12:32:16.460Z,15.40
2023-04-15T12:34:50.947Z,15.11
2023-04-15T12:37:19.645Z,15.06
2023-04-15T12:39:50.637Z,14.94
2023-04-15T12:42:19.306Z,14.96
2023-04-15T12:44:47.577Z,15.21
2023-04-15T12:47:15.975Z,15.21
2023-04-15T12:49:44.260Z,15.17
2023-04-15T12:52:12.732Z,15.04
2023-04-15T12:54:40.859Z,14.97
2023-04-15T12:57:09.184Z,15.17
2023-04-15T12:59:37.774Z,15.34
2023-04-15T13:02:06.185Z,15.32
2023-04-15T13:04:34.669Z,15.49
2023-04-15T13:07:03.202Z,15.35
2023-04-15T13:09:31.486Z,15.37
2023-04-15T13:11:59.748Z,15.32
2023-04-15T13:14:27.860Z,15.25
2023-04-15T13:16:56.530Z,15.03
2023-04-15T13:19:24.647Z,14.96
2023-04-15T13:21:52.893Z,14.88
2023-04-15T13:24:21.033Z,14.97
2023-04-15T13:26:50.403Z,15.22
2023-04-15T13:29:18.973Z,15.23
2023-04-15T13:31:47.298Z,15.45
2023-04-15T13:34:15.799Z,15.54
2023-04-15T13:36:44.079Z,15.55
2023-04-15T13:39:12.228Z,15.55
2023-04-15T13:41:41.148Z,15.56
2023-04-15T13:44:09.666Z,15.39
2023-04-15T13:46:39.754Z,15.17
2023-04-15T13:49:08.033Z,14.97
2023-04-15T13:51:40.677Z,15.05
2023-04-15T13:54:09.193Z,15.20
2023-04-15T13:56:37.748Z,15.45
2023-04-15T13:59:06.884Z,15.20
2023-04-15T14:01:36.144Z,15.38
2023-04-15T14:04:04.760Z,15.37
2023-04-15T14:06:33.553Z,15.33
2023-04-15T14:09:01.715Z,15.14
2023-04-15T14:11:30.220Z,15.00
2023-04-15T14:13:58.493Z,14.87
2023-04-15T14:16:26.925Z,14.87
2023-04-15T14:18:55.353Z,14.52
2023-04-15T14:21:23.776Z,14.35
2023-04-15T14:23:52.010Z,14.30
2023-04-15T14:26:20.684Z,14.19
2023-04-15T14:28:49.021Z,13.99
2023-04-15T14:31:17.344Z,13.86
2023-04-15T14:33:46.517Z,13.86
2023-04-15T14:36:14.743Z,13.88
2023-04-15T14:38:43.214Z,13.98
2023-04-15T14:41:12.347Z,13.74
2023-04-15T14:43:40.589Z,13.62
2023-04-15T14:46:09.359Z,13.47
2023-04-15T14:48:37.995Z,13.40
2023-04-15T14:51:06.961Z,13.46
2023-04-15T14:53:35.169Z,13.45
2023-04-15T14:56:03.723Z,13.42
2023-04-15T14:58:33.543Z,13.47
2023-04-15T15:01:03.097Z,13.50
2023-04-15T15:03:31.820Z,13.54
2023-04-15T15:06:00.163Z,13.52
2023-04-15T15:08:28.597Z,13.39
2023-04-15T15:10:56.984Z,13.41
2023-04-15T15:13:25.880Z,13.27
2023-04-15T15:15:54.183Z,13.06
2023-04-15T15:18:22.557Z,12.83
2023-04-15T15:20:50.851Z,12.71
2023-04-15T15:23:19.393Z,12.53
2023-04-15T15:25:47.984Z,12.30
2023-04-15T15:28:16.358Z,12.24
2023-04-15T15:30:44.420Z,12.25
2023-04-15T15:33:13.019Z,12.21
2023-04-15T15:35:41.500Z,12.09
2023-04-15T15:38:12.043Z,12.08
2023-04-15T15:40:40.517Z,12.18
2023-04-15T15:43:09.049Z,12.31
2023-04-15T15:45:37.487Z,12.42
2023-04-15T15:48:06.606Z,12.47
2023-04-15T15:50:34.906Z,12.51
2023-04-15T15:53:03.147Z,12.50
2023-04-15T15:55:31.357Z,12.47
2023-04-15T15:57:59.588Z,12.40
2023-04-15T16:00:27.871Z,12.27
2023-04-15T16:05:28.855Z,12.07
2023-04-15T16:07:57.162Z,12.00
2023-04-15T16:10:25.594Z,11.95
2023-04-15T16:12:54.769Z,11.90
2023-04-15T16:15:26.221Z,11.86
2023-04-15T16:17:54.903Z,11.80
2023-04-15T16:20:23.606Z,11.65
2023-04-15T16:22:51.795Z,11.56
2023-04-15T16:25:20.569Z,11.44
2023-04-15T16:28:00.762Z,11.33
2023-04-15T16:30:43.862Z,11.25
2023-04-15T16:33:12.067Z,11.06
2023-04-15T16:35:40.142Z,10.91
2023-04-15T16:38:08.389Z,10.85
2023-04-15T16:40:37.816Z,10.80
2023-04-15T16:43:11.434Z,10.69
2023-04-15T16:45:39.801Z,10.57
2023-04-15T16:48:07.961Z,10.46
2023-04-15T16:50:39.098Z,10.46
2023-04-15T16:53:08.129Z,10.44
2023-04-15T16:55:36.380Z,10.39
2023-04-15T16:58:05.986Z,10.33
2023-04-15T17:00:37.283Z,10.29
2023-04-15T17:03:06.374Z,10.20
2023-04-15T17:05:35.222Z,10.14
2023-04-15T17:08:05.454Z,10.09
2023-04-15T17:10:33.821Z,10.05
2023-04-15T17:13:02.026Z,9.99
2023-04-15T17:15:30.907Z,9.91
2023-04-15T17:17:59.347Z,9.85
2023-04-15T17:20:27.855Z,9.84
2023-04-15T17:22:56.561Z,9.83
2023-04-15T17:25:24.865Z,9.81
2023-04-15T17:27:52.925Z,9.76
2023-04-15T17:30:21.683Z,9.71
2023-04-15T17:32:51.684Z,9.63
2023-04-15T17:35:20.502Z,9.67
2023-04-15T17:37:48.772Z,9.68
2023-04-15T17:40:17.157Z,9.69
2023-04-15T17:42:45.532Z,9.62
2023-04-15T17:45:14.666Z,9.59
2023-04-15T17:47:43.055Z,9.58
2023-04-15T17:50:11.536Z,9.61
2023-04-15T17:52:39.776Z,9.69
2023-04-15T17:55:08.678Z,9.75
2023-04-15T17:57:37.161Z,9.76
2023-04-15T18:00:10.346Z,9.78
2023-04-15T18:02:41.825Z,9.81
2023-04-15T18:05:10.708Z,9.85
2023-04-15T18:07:39.100Z,9.75
2023-04-15T18:10:08.533Z,9.71
2023-04-15T18:12:36.951Z,9.71
2023-04-15T18:15:06.453Z,9.71
2023-04-15T18:17:34.679Z,9.73
2023-04-15T18:20:03.739Z,9.73
2023-04-15T18:22:31.910Z,9.74
2023-04-15T18:25:04.341Z,9.73
2023-04-15T18:27:34.449Z,9.68
2023-04-15T18:30:02.666Z,9.61
2023-04-15T18:32:33.019Z,9.52
2023-04-15T18:35:02.131Z,9.49
2023-04-15T18:37:30.716Z,9.44
2023-04-15T18:39:59.586Z,9.35
2023-04-15T18:42:27.820Z,9.10
2023-04-15T18:44:56.179Z,8.97
2023-04-15T18:47:27.286Z,8.98
2023-04-15T18:49:55.828Z,8.96
2023-04-15T18:52:24.357Z,8.79
2023-04-15T18:54:52.849Z,8.74
2023-04-15T18:57:24.482Z,8.59
2023-04-15T19:00:01.517Z,8.48
2023-04-15T19:02:29.821Z,8.40
2023-04-15T19:04:58.371Z,8.36
2023-04-15T19:07:26.826Z,8.26
2023-04-15T19:09:55.103Z,8.21
2023-04-15T19:12:23.444Z,8.09
2023-04-15T19:14:51.762Z,8.06
2023-04-15T19:17:20.207Z,8.05
2023-04-15T19:19:48.422Z,8.00
2023-04-15T19:22:16.968Z,8.03
2023-04-15T19:24:46.314Z,7.98
2023-04-15T19:27:14.793Z,7.95
2023-04-15T19:29:43.110Z,7.90
2023-04-15T19:32:11.456Z,7.86
2023-04-15T19:34:39.831Z,7.79
2023-04-15T19:37:08.319Z,7.66
2023-04-15T19:39:36.883Z,7.63
2023-04-15T19:42:05.587Z,7.65
2023-04-15T19:44:33.872Z,7.67
2023-04-15T19:47:02.193Z,7.68
2023-04-15T19:49:30.762Z,7.65
2023-04-15T19:51:59.008Z,7.56
2023-04-15T19:54:27.288Z,7.48
2023-04-15T19:56:55.873Z,7.38
2023-04-15T19:59:24.536Z,7.32
2023-04-15T20:01:53.427Z,7.25
2023-04-15T20:04:22.753Z,7.21
2023-04-15T20:06:51.108Z,7.22
2023-04-15T20:09:19.326Z,7.23
2023-04-15T20:12:46.793Z,7.25
2023-04-15T20:14:36.350Z,7.26
2023-04-15T20:17:04.539Z,7.29
2023-04-15T20:19:32.611Z,7.26
2023-04-15T20:22:00.921Z,7.14
2023-04-15T20:24:29.250Z,7.17
2023-04-15T20:26:57.833Z,7.19
2023-04-15T20:29:26.565Z,7.15
2023-04-15T20:31:54.801Z,7.13
2023-04-15T20:34:23.120Z,7.10
2023-04-15T20:36:51.467Z,7.03
2023-04-15T20:39:20.045Z,7.00
2023-04-15T20:41:50.061Z,7.00
2023-04-15T20:44:18.350Z,7.03
2023-04-15T20:46:46.875Z,7.03
2023-04-15T20:49:15.106Z,7.00
2023-04-15T20:51:43.587Z,7.02
2023-04-15T20:54:11.867Z,7.07
2023-04-15T20:56:40.246Z,7.09
2023-04-15T20:59:08.591Z,7.02
2023-04-15T21:01:36.845Z,6.94
2023-04-15T21:04:05.137Z,6.87
2023-04-15T21:06:34.648Z,6.86
2023-04-15T21:09:03.352Z,6.81
2023-04-15T21:11:53.375Z,6.82
2023-04-15T21:14:21.459Z,6.83
2023-04-15T21:16:49.679Z,6.84
2023-04-15T21:19:17.896Z,6.89
2023-04-15T21:21:46.379Z,6.92
2023-04-15T21:24:14.653Z,6.93
2023-04-15T21:26:42.832Z,6.92
2023-04-15T21:29:12.177Z,6.91
2023-04-15T21:31:40.998Z,6.92
2023-04-15T21:34:10.132Z,6.95
2023-04-15T21:36:39.224Z,7.01
2023-04-15T21:39:07.838Z,7.05
2023-04-15T21:41:37.340Z,7.06
2023-04-15T21:44:06.003Z,7.06
2023-04-15T21:46:35.574Z,7.05
2023-04-15T21:49:04.501Z,7.04
2023-04-15T21:51:33.494Z,7.04
2023-04-15T21:54:01.830Z,7.04
2023-04-15T21:56:30.159Z,7.03
2023-04-15T21:58:58.979Z,7.02
2023-04-15T22:01:27.530Z,6.99
2023-04-15T22:03:56.462Z,6.96
2023-04-15T22:06:24.940Z,6.91
2023-04-15T22:08:57.403Z,6.90
2023-04-15T22:11:27.857Z,6.85
2023-04-15T22:13:57.909Z,6.81
2023-04-15T22:16:26.852Z,6.81
2023-04-15T22:18:56.156Z,6.81
2023-04-15T22:21:24.525Z,6.80
2023-04-15T22:23:53.197Z,6.76
2023-04-15T22:26:41.389Z,6.73
2023-04-15T22:29:09.818Z,6.71
2023-04-15T22:31:38.996Z,6.64
2023-04-15T22:34:08.223Z,6.58
2023-04-15T22:36:36.576Z,6.53
2023-04-15T22:39:04.867Z,6.48
2023-04-15T22:41:33.232Z,6.41
2023-04-15T22:44:01.740Z,6.32
2023-04-15T22:46:30.344Z,6.34
2023-04-15T22:48:58.537Z,6.27
2023-04-15T22:51:28.151Z,6.16
2023-04-15T22:53:56.598Z,6.09
2023-04-15T22:56:25.018Z,6.10
2023-04-15T22:58:53.452Z,6.13
2023-04-15T23:01:21.742Z,6.12
2023-04-15T23:03:56.793Z,6.09
2023-04-15T23:06:33.360Z,6.05
2023-04-15T23:09:01.519Z,6.00
2023-04-15T23:11:30.448Z,5.87
2023-04-15T23:13:58.588Z,5.81
2023-04-15T23:16:27.538Z,5.80
2023-04-15T23:18:55.779Z,5.85
2023-04-15T23:21:26.044Z,5.74
2023-04-15T23:23:54.718Z,5.68
2023-04-15T23:26:23.480Z,5.65
2023-04-15T23:28:51.737Z,5.51
2023-04-15T23:31:20.119Z,5.44
2023-04-15T23:33:48.805Z,5.44
2023-04-15T23:36:17.244Z,5.51
2023-04-15T23:38:45.468Z,5.53
2023-04-15T23:41:14.053Z,5.52
2023-04-15T23:43:42.333Z,5.44
2023-04-15T23:46:12.080Z,5.38
2023-04-15T23:48:42.009Z,5.34
2023-04-15T23:51:10.459Z,5.35
2023-04-15T23:53:38.720Z,5.34
2023-04-15T23:56:07.626Z,5.25
2023-04-15T23:58:35.988Z,5.27
